createdAt,value
2019-05-06T00:04:18.274Z,4.10
2019-05-06T00:14:23.544Z,4.08
2019-05-06T00:24:30.694Z,4.09
2019-05-06T00:34:35.266Z,4.01
2019-05-06T00:44:39.706Z,3.98
2019-05-06T00:54:44.254Z,3.96
2019-05-06T01:04:48.833Z,4.01
2019-05-06T01:14:54.923Z,4.08
2019-05-06T01:24:59.390Z,4.08
2019-05-06T01:35:04.768Z,4.10
2019-05-06T01:45:10.531Z,4.09
2019-05-06T01:55:16.549Z,4.05
2019-05-06T02:05:24.194Z,3.96
2019-05-06T02:15:28.384Z,3.92
2019-05-06T02:25:34.486Z,3.98
2019-05-06T02:35:46.841Z,3.80
2019-05-06T02:45:53.070Z,3.63
2019-05-06T02:55:57.911Z,3.64
2019-05-06T03:06:03.835Z,3.68
2019-05-06T03:16:08.619Z,3.72
2019-05-06T03:26:13.810Z,3.79
2019-05-06T03:36:25.952Z,3.87
2019-05-06T03:46:43.118Z,3.93
2019-05-06T03:56:48.223Z,3.97
2019-05-06T04:06:53.717Z,4.16
2019-05-06T04:17:13.151Z,4.42
2019-05-06T04:27:43.071Z,4.61
2019-05-06T04:37:47.968Z,4.92
2019-05-06T04:47:53.705Z,5.21
2019-05-06T04:57:58.741Z,5.57
2019-05-06T05:08:04.256Z,5.97
2019-05-06T05:18:13.239Z,6.06
2019-05-06T05:28:18.871Z,6.21
2019-05-06T05:38:23.653Z,6.35
2019-05-06T05:48:32.772Z,6.60
2019-05-06T05:58:37.587Z,6.85
2019-05-06T06:08:43.277Z,7.02
2019-05-06T06:19:05.824Z,7.10
2019-05-06T06:29:12.483Z,7.37
2019-05-06T06:39:27.627Z,7.54
2019-05-06T06:49:32.860Z,7.86
2019-05-06T06:59:42.854Z,8.23
2019-05-06T07:09:47.334Z,8.58
2019-05-06T07:19:53.450Z,8.77
2019-05-06T07:29:58.019Z,9.13
2019-05-06T07:40:05.401Z,10.24
2019-05-06T07:50:13.111Z,10.64
2019-05-06T08:00:17.934Z,10.55
2019-05-06T08:10:22.522Z,10.80
2019-05-06T08:20:39.426Z,10.84
2019-05-06T08:30:45.060Z,10.58
2019-05-06T08:40:49.541Z,10.66
2019-05-06T08:50:56.792Z,10.91
2019-05-06T09:01:05.894Z,11.09
2019-05-06T09:11:12.221Z,11.60
2019-05-06T09:21:16.806Z,12.87
2019-05-06T09:31:25.830Z,11.90
2019-05-06T09:41:32.405Z,11.98
2019-05-06T09:51:36.493Z,12.56
2019-05-06T10:01:43.545Z,12.05
2019-05-06T10:11:47.510Z,12.05
2019-05-06T10:21:53.086Z,11.91
2019-05-06T10:32:08.696Z,12.22
2019-05-06T10:42:16.298Z,12.54
2019-05-06T10:52:22.546Z,13.21
2019-05-06T11:02:34.728Z,13.80
2019-05-06T11:12:39.273Z,14.04
2019-05-06T11:22:45.084Z,13.45
2019-05-06T11:32:57.010Z,12.65
2019-05-06T11:43:01.649Z,12.93
2019-05-06T11:53:06.219Z,13.20
2019-05-06T12:03:12.761Z,13.62
2019-05-06T12:13:17.425Z,13.86
2019-05-06T12:23:22.463Z,14.14
2019-05-06T12:33:29.165Z,16.02
2019-05-06T12:43:35.281Z,16.11
2019-05-06T12:53:39.828Z,16.98
2019-05-06T13:03:44.424Z,14.90
2019-05-06T13:13:57.551Z,16.55
2019-05-06T13:23:57.112Z,13.45
2019-05-06T13:34:06.353Z,12.11
2019-05-06T13:44:13.454Z,13.98
2019-05-06T13:54:18.295Z,14.22
2019-05-06T14:04:24.085Z,13.78
2019-05-06T14:14:28.793Z,13.42
2019-05-06T14:24:34.684Z,12.55
2019-05-06T14:34:39.148Z,12.00
2019-05-06T14:44:43.815Z,11.83
2019-05-06T14:54:50.112Z,11.87
2019-05-06T15:04:55.042Z,11.67
2019-05-06T15:14:59.515Z,11.67
2019-05-06T15:25:05.557Z,11.87
2019-05-06T15:35:28.340Z,12.30
2019-05-06T15:45:33.084Z,12.18
2019-05-06T15:55:37.574Z,11.97
2019-05-06T16:05:43.694Z,11.96
2019-05-06T16:15:49.952Z,11.84
2019-05-06T16:25:54.542Z,11.66
2019-05-06T16:35:59.258Z,11.61
2019-05-06T16:46:03.921Z,11.57
2019-05-06T16:56:19.371Z,11.29
2019-05-06T17:06:28.342Z,10.80
2019-05-06T17:16:34.035Z,10.45
2019-05-06T17:26:38.891Z,10.28
2019-05-06T17:36:44.415Z,10.24
2019-05-06T17:46:53.155Z,9.98
2019-05-06T17:57:01.439Z,9.92
2019-05-06T18:07:05.301Z,9.93
2019-05-06T18:17:12.314Z,9.84
2019-05-06T18:27:16.275Z,9.70
2019-05-06T18:37:23.375Z,9.57
2019-05-06T18:47:28.185Z,9.54
2019-05-06T18:57:33.126Z,9.41
2019-05-06T19:07:39.462Z,9.11
2019-05-06T19:17:44.459Z,8.77
2019-05-06T19:27:50.035Z,8.44
2019-05-06T19:37:54.642Z,8.14
2019-05-06T19:47:59.317Z,7.84
2019-05-06T19:58:04.083Z,7.51
2019-05-06T20:08:16.359Z,7.03
2019-05-06T20:18:21.116Z,6.78
2019-05-06T20:28:25.634Z,6.64
2019-05-06T20:38:30.209Z,6.57
2019-05-06T20:48:34.849Z,6.51
2019-05-06T20:58:39.289Z,6.40
2019-05-06T21:08:43.809Z,6.23
2019-05-06T21:18:48.393Z,5.84
2019-05-06T21:28:52.922Z,5.51
2019-05-06T21:38:57.410Z,5.48
2019-05-06T21:49:01.904Z,5.32
2019-05-06T21:59:06.479Z,5.17
2019-05-06T22:09:13.156Z,4.85
2019-05-06T22:19:20.811Z,4.46
2019-05-06T22:29:25.251Z,4.41
2019-05-06T22:39:31.705Z,4.25
2019-05-06T22:49:35.856Z,4.07
2019-05-06T22:59:42.346Z,4.25
2019-05-06T23:09:46.595Z,4.02
2019-05-06T23:19:52.804Z,3.76
2019-05-06T23:29:57.281Z,3.47
2019-05-06T23:40:39.731Z,3.65
2019-05-06T23:51:22.335Z,3.89
